Ben Claire, South Dakota
Current Conditions -  °F | °C
As of 3:56 AM on Saturday 25 Oct 2014 (Local Time) from KFSD Reporting Station
Clear Clear  
Wind Chill: 46°   Ceiling: Unl
Heat Index: 46°   Visibility: 10mi
Dew Point: 41°   Wind: 3mph
Humidity: 83%   Direction: 300°WNW
Pressure: 30.06"   Gusts: NA
Location:  43.5799°N, 96.5062°W
Report Text: KFSD 250856Z AUTO 30003KT 10SM CLR 08/05 A3006 RMK AO2 SLP178 T00780050 51016
Loading
Personal Weather Stations






























Interactive Weather Map
Tropical Storm Tracking
New forecast layout! Learn more

10-Day Weather Forecast

Advertisements
Track Severe Weather on mobile